Time;durP1;ratioP1;P1;durP2;ratioP2;P2;SDS_P1;SDS_P2;PMS_P1;PMS_P2;Temp;Humidity;BMP_temperature;BMP_pressure;BME280_temperature;BME280_humidity;BME280_pressure;Samples;Min_cycle;Max_cycle;Signal;HPM_P1;HPM_P2
2023/06/21 00:01:38;;;;;;;21.02;13.43;;;26.60;54.00;;;;;;5052273;28;20484;-72
2023/06/21 00:04:05;;;;;;;18.60;12.15;;;26.50;54.20;;;;;;5052353;28;20025;-72
2023/06/21 00:06:31;;;;;;;29.75;14.68;;;26.50;54.70;;;;;;5052037;28;20033;-74
2023/06/21 00:08:57;;;;;;;20.33;14.23;;;26.40;55.00;;;;;;5052089;28;20490;-72
2023/06/21 00:11:23;;;;;;;23.67;15.05;;;26.30;55.20;;;;;;5051766;28;20025;-73
2023/06/21 00:13:51;;;;;;;19.27;13.50;;;26.30;55.30;;;;;;5051963;28;20044;-72
2023/06/21 00:16:18;;;;;;;22.17;14.23;;;26.30;55.40;;;;;;5051831;28;20029;-73
2023/06/21 00:18:43;;;;;;;24.73;14.75;;;26.30;55.60;;;;;;5051788;28;20044;-73
2023/06/21 00:21:09;;;;;;;28.15;14.55;;;26.40;55.30;;;;;;5051944;28;20029;-73
2023/06/21 00:23:35;;;;;;;18.85;13.82;;;26.40;55.40;;;;;;5051261;28;20036;-72
2023/06/21 00:26:00;;;;;;;21.15;14.15;;;26.40;55.40;;;;;;5051065;28;20044;-72
2023/06/21 00:28:26;;;;;;;22.92;14.63;;;26.40;55.70;;;;;;5050779;28;20175;-72
2023/06/21 00:30:52;;;;;;;24.17;15.48;;;26.40;55.70;;;;;;5032691;28;20025;-73
2023/06/21 00:33:17;;;;;;;20.17;13.98;;;26.30;55.60;;;;;;5032953;28;20040;-74
2023/06/21 00:35:43;;;;;;;20.33;14.52;;;26.30;55.50;;;;;;5050938;28;20029;-72
2023/06/21 00:38:12;;;;;;;25.38;13.98;;;26.30;55.80;;;;;;5051115;28;20041;-75
2023/06/21 00:40:39;;;;;;;20.15;13.82;;;26.20;55.80;;;;;;5050828;28;20028;-71
2023/06/21 00:43:05;;;;;;;21.13;13.77;;;26.20;55.90;;;;;;5050986;28;20044;-74
2023/06/21 00:45:39;;;;;;;23.77;13.27;;;26.20;55.70;;;;;;5050496;28;20422;-73
2023/06/21 00:48:05;;;;;;;17.58;12.23;;;26.10;55.50;;;;;;5050474;28;20083;-74
2023/06/21 00:50:31;;;;;;;18.88;11.85;;;26.10;55.50;;;;;;5032602;28;20064;-74
2023/06/21 00:52:58;;;;;;;24.08;12.30;;;26.00;55.60;;;;;;5050592;28;20079;-73
2023/06/21 00:55:24;;;;;;;20.00;11.43;;;25.90;56.00;;;;;;5050623;28;20035;-73
2023/06/21 00:57:50;;;;;;;17.58;11.30;;;25.80;56.10;;;;;;5051386;28;20108;-74
2023/06/21 01:00:20;;;;;;;19.55;10.90;;;25.80;56.50;;;;;;5051605;28;20036;-73
2023/06/21 01:02:56;;;;;;;15.02;9.85;;;25.70;56.60;;;;;;5051590;28;20091;-73
2023/06/21 01:05:24;;;;;;;15.15;9.85;;;25.70;57.00;;;;;;5054041;28;20072;-73
2023/06/21 01:08:01;;;;;;;14.30;9.35;;;25.70;57.00;;;;;;5037414;28;20069;-73
2023/06/21 01:10:36;;;;;;;16.63;9.45;;;25.60;56.90;;;;;;5055270;28;20047;-73
2023/06/21 01:13:10;;;;;;;15.73;8.45;;;25.60;57.10;;;;;;5037497;28;20036;-73
2023/06/21 01:15:44;;;;;;;18.63;9.75;;;25.50;57.10;;;;;;5055419;28;20483;-73
2023/06/21 01:18:13;;;;;;;14.95;8.88;;;25.50;57.20;;;;;;5054862;28;20025;-73
2023/06/21 01:20:40;;;;;;;14.27;8.35;;;25.50;57.50;;;;;;5054923;28;20095;-74
2023/06/21 01:23:14;;;;;;;16.70;8.55;;;25.50;56.80;;;;;;5054692;28;20021;-73
2023/06/21 01:25:55;;;;;;;15.82;8.65;;;25.50;56.80;;;;;;5054588;28;20418;-73
2023/06/21 01:28:27;;;;;;;11.35;7.35;;;25.40;57.30;;;;;;5054227;28;20561;-73
2023/06/21 01:30:57;;;;;;;15.02;7.75;;;25.30;57.10;;;;;;5054371;28;20094;-73
2023/06/21 01:33:24;;;;;;;11.32;7.43;;;25.30;57.40;;;;;;5054573;28;20195;-72
2023/06/21 01:35:52;;;;;;;11.80;7.45;;;25.30;56.70;;;;;;5036688;28;20037;-74
2023/06/21 01:38:19;;;;;;;11.48;7.28;;;25.30;56.70;;;;;;5054915;28;20090;-73
2023/06/21 01:40:45;;;;;;;10.80;6.78;;;25.30;56.80;;;;;;5062801;28;20032;-73
2023/06/21 01:43:11;;;;;;;12.05;7.20;;;25.20;56.90;;;;;;5074786;28;20463;-73
2023/06/21 01:45:37;;;;;;;11.70;7.30;;;25.20;56.90;;;;;;5058716;28;20068;-74
2023/06/21 01:48:04;;;;;;;10.93;7.00;;;25.10;56.80;;;;;;5074616;28;20049;-72
2023/06/21 01:50:31;;;;;;;11.70;6.93;;;25.20;56.90;;;;;;5074505;28;20041;-73
2023/06/21 01:52:58;;;;;;;11.43;6.70;;;25.20;57.00;;;;;;5074533;28;20482;-73
2023/06/21 01:55:25;;;;;;;11.82;6.95;;;25.20;57.20;;;;;;5074714;28;20032;-72
2023/06/21 01:57:52;;;;;;;10.18;6.97;;;25.20;57.20;;;;;;5056421;28;20413;-73
2023/06/21 02:00:21;;;;;;;13.57;7.20;;;25.20;56.80;;;;;;5074340;28;20028;-72
2023/06/21 02:02:54;;;;;;;13.20;7.38;;;25.10;58.00;;;;;;5074438;28;20135;-73
2023/06/21 02:05:21;;;;;;;11.60;6.53;;;25.10;57.50;;;;;;5074490;28;20032;-73
2023/06/21 02:07:48;;;;;;;14.15;7.40;;;25.10;57.00;;;;;;5074232;28;20128;-72
2023/06/21 02:10:15;;;;;;;12.05;6.95;;;25.10;56.90;;;;;;5074129;28;20039;-73
2023/06/21 02:12:46;;;;;;;12.93;7.30;;;25.00;57.30;;;;;;5074958;28;20098;-73
2023/06/21 02:15:12;;;;;;;13.77;7.28;;;25.00;57.10;;;;;;5073982;28;20029;-73
2023/06/21 02:17:38;;;;;;;12.60;7.30;;;25.00;57.00;;;;;;5073647;28;20069;-73
2023/06/21 02:20:09;;;;;;;10.15;6.78;;;25.00;57.20;;;;;;5073946;28;20037;-73
2023/06/21 02:22:35;;;;;;;10.82;7.45;;;25.00;57.70;;;;;;5073768;28;20059;-72
2023/06/21 02:25:01;;;;;;;14.70;7.20;;;25.00;57.30;;;;;;5073930;28;20490;-73
2023/06/21 02:27:26;;;;;;;10.88;7.47;;;25.00;57.00;;;;;;5073657;28;20079;-73
2023/06/21 02:29:52;;;;;;;11.13;7.10;;;25.00;57.30;;;;;;5073876;28;20032;-73
2023/06/21 02:32:17;;;;;;;11.32;7.50;;;25.00;57.30;;;;;;5055930;28;20078;-72
2023/06/21 02:34:43;;;;;;;11.05;6.88;;;25.00;57.40;;;;;;5073901;28;20085;-73
2023/06/21 02:37:12;;;;;;;12.38;6.85;;;24.80;57.40;;;;;;5073656;28;20029;-73
2023/06/21 02:39:38;;;;;;;9.13;7.03;;;24.80;57.50;;;;;;5055625;28;20127;-73
2023/06/21 02:42:04;;;;;;;11.20;6.60;;;24.80;57.60;;;;;;5073725;28;20042;-72
2023/06/21 02:44:29;;;;;;;10.20;6.45;;;24.70;57.80;;;;;;5073612;28;20056;-73
2023/06/21 02:46:56;;;;;;;13.23;6.80;;;24.70;57.60;;;;;;5054975;28;20033;-72
2023/06/21 02:49:22;;;;;;;12.15;7.32;;;24.80;57.90;;;;;;5072861;28;20044;-72
2023/06/21 02:51:50;;;;;;;11.07;6.88;;;24.80;58.00;;;;;;5072944;28;20039;-72
2023/06/21 02:54:16;;;;;;;12.45;6.70;;;24.70;58.30;;;;;;5073180;28;20491;-72
2023/06/21 02:56:45;;;;;;;10.27;6.40;;;24.70;58.40;;;;;;5072850;28;20033;-72
2023/06/21 02:59:11;;;;;;;10.80;6.63;;;24.60;58.30;;;;;;5072811;28;20519;-73
2023/06/21 03:01:37;;;;;;;12.00;7.15;;;24.60;58.30;;;;;;5072700;28;20036;-72
2023/06/21 03:04:03;;;;;;;10.45;6.20;;;24.60;58.70;;;;;;5073043;28;20048;-72
2023/06/21 03:06:29;;;;;;;13.38;6.75;;;24.50;58.50;;;;;;5072637;28;20455;-72
2023/06/21 03:08:58;;;;;;;9.00;6.45;;;24.50;58.90;;;;;;5072829;28;20113;-73
2023/06/21 03:11:24;;;;;;;9.98;6.82;;;24.50;58.80;;;;;;5072759;28;20044;-72
2023/06/21 03:13:49;;;;;;;13.30;7.53;;;24.50;58.90;;;;;;5072771;28;20138;-74
2023/06/21 03:16:15;;;;;;;12.45;7.47;;;24.40;59.10;;;;;;5072244;28;20028;-73
2023/06/21 03:18:41;;;;;;;10.60;7.38;;;24.40;59.20;;;;;;5072000;28;20040;-73
2023/06/21 03:21:08;;;;;;;12.18;8.00;;;24.40;59.60;;;;;;5072180;28;20032;-73
2023/06/21 03:23:35;;;;;;;9.40;7.60;;;24.40;59.30;;;;;;5071885;28;20052;-73
2023/06/21 03:26:01;;;;;;;13.10;7.22;;;24.30;59.80;;;;;;5072018;28;20033;-73
2023/06/21 03:28:27;;;;;;;10.93;7.15;;;24.40;59.70;;;;;;5071628;28;20119;-73
2023/06/21 03:30:53;;;;;;;15.52;7.75;;;24.40;59.90;;;;;;5072012;28;20036;-72
2023/06/21 03:33:18;;;;;;;12.48;7.43;;;24.30;59.90;;;;;;5053904;28;20024;-72
2023/06/21 03:35:44;;;;;;;14.75;7.82;;;24.30;60.70;;;;;;5071708;28;20123;-72
2023/06/21 03:38:10;;;;;;;12.20;7.30;;;24.30;60.90;;;;;;5071981;28;20029;-72
2023/06/21 03:40:36;;;;;;;12.07;7.80;;;24.20;61.10;;;;;;5054335;28;20037;-73
2023/06/21 03:43:01;;;;;;;12.48;7.50;;;24.20;61.60;;;;;;5071532;28;20040;-73
2023/06/21 03:45:27;;;;;;;10.35;7.65;;;24.10;61.90;;;;;;5071400;28;20044;-72
2023/06/21 03:47:53;;;;;;;11.85;7.00;;;24.10;62.20;;;;;;5053324;28;20040;-72
2023/06/21 03:50:19;;;;;;;11.80;7.85;;;24.10;62.00;;;;;;5071190;28;20138;-72
2023/06/21 03:52:45;;;;;;;13.52;7.70;;;24.10;61.80;;;;;;5085087;28;20037;-72
2023/06/21 03:55:11;;;;;;;16.33;7.75;;;24.10;62.30;;;;;;5091324;28;20032;-73
2023/06/21 03:57:38;;;;;;;11.70;7.32;;;24.10;61.80;;;;;;5072041;28;20094;-73
2023/06/21 04:00:06;;;;;;;11.10;6.80;;;24.10;62.00;;;;;;5071312;28;20035;-72
2023/06/21 04:02:32;;;;;;;15.57;7.68;;;24.20;62.20;;;;;;5071430;28;20501;-72
2023/06/21 04:04:58;;;;;;;11.90;7.57;;;24.20;61.90;;;;;;5071659;28;20025;-73
2023/06/21 04:07:24;;;;;;;12.75;7.30;;;24.30;62.00;;;;;;5071417;28;20358;-72
2023/06/21 04:09:51;;;;;;;14.90;7.68;;;24.30;62.20;;;;;;5071618;28;20043;-73
2023/06/21 04:12:17;;;;;;;12.77;7.68;;;24.20;62.20;;;;;;5071065;28;20028;-73
2023/06/21 04:14:43;;;;;;;11.48;7.28;;;24.20;62.10;;;;;;5071394;28;20526;-73
2023/06/21 04:17:08;;;;;;;13.40;7.72;;;24.20;62.60;;;;;;5070605;28;20359;-71
2023/06/21 04:19:34;;;;;;;12.10;7.95;;;24.10;62.60;;;;;;5070824;28;20028;-71
2023/06/21 04:22:00;;;;;;;11.77;7.90;;;24.10;62.70;;;;;;5070918;28;20025;-71
2023/06/21 04:24:26;;;;;;;12.48;7.82;;;24.10;62.40;;;;;;5070925;28;20033;-74
2023/06/21 04:26:52;;;;;;;13.65;7.47;;;24.10;62.30;;;;;;5070977;28;20170;-73
2023/06/21 04:29:20;;;;;;;10.32;7.80;;;24.20;62.50;;;;;;5071551;28;20494;-74
2023/06/21 04:31:46;;;;;;;18.63;7.82;;;24.30;62.40;;;;;;5072004;28;20109;-72
2023/06/21 04:34:12;;;;;;;15.70;7.03;;;24.30;62.10;;;;;;5071709;28;20036;-74
2023/06/21 04:36:38;;;;;;;16.83;7.55;;;24.40;62.00;;;;;;5053644;28;20389;-73
2023/06/21 04:39:03;;;;;;;13.55;7.65;;;24.30;62.00;;;;;;5072303;28;20040;-72
2023/06/21 04:41:29;;;;;;;12.88;7.13;;;24.40;61.90;;;;;;5075746;28;20516;-74
2023/06/21 04:43:55;;;;;;;11.55;7.05;;;24.30;61.70;;;;;;5054275;28;20063;-72
2023/06/21 04:46:21;;;;;;;10.50;6.65;;;24.40;61.90;;;;;;5055535;28;20384;-73
2023/06/21 04:48:47;;;;;;;13.65;7.07;;;24.30;61.90;;;;;;5055862;28;20052;-74
2023/06/21 04:51:16;;;;;;;12.27;7.05;;;24.30;62.00;;;;;;5055516;28;20555;-73
2023/06/21 04:53:44;;;;;;;11.85;6.78;;;24.30;62.00;;;;;;5055304;28;20041;-72
2023/06/21 04:56:12;;;;;;;14.75;7.10;;;24.30;62.00;;;;;;5054934;28;20109;-72
2023/06/21 04:58:39;;;;;;;14.15;7.07;;;24.30;61.70;;;;;;5053483;28;20036;-74
2023/06/21 05:01:06;;;;;;;11.65;7.25;;;24.40;61.30;;;;;;5054807;28;20041;-74
2023/06/21 05:03:32;;;;;;;12.27;7.32;;;24.50;61.10;;;;;;5054964;28;20021;-74
2023/06/21 05:05:59;;;;;;;13.98;7.15;;;24.50;60.80;;;;;;5054790;28;20036;-74
2023/06/21 05:08:25;;;;;;;13.77;7.13;;;24.60;61.10;;;;;;5054633;28;20045;-72
2023/06/21 05:10:51;;;;;;;11.43;6.53;;;24.70;61.10;;;;;;5054709;28;20037;-73
2023/06/21 05:13:17;;;;;;;10.50;6.15;;;24.70;60.80;;;;;;5054742;28;20021;-75
2023/06/21 05:15:43;;;;;;;12.68;7.05;;;24.70;60.80;;;;;;5052952;28;20033;-74
2023/06/21 05:18:09;;;;;;;10.90;6.80;;;24.90;60.30;;;;;;5054491;28;20394;-74
2023/06/21 05:20:34;;;;;;;14.00;6.75;;;25.00;60.20;;;;;;5055317;28;20108;-74
2023/06/21 05:23:00;;;;;;;10.52;6.10;;;25.10;60.00;;;;;;5054892;28;20041;-73
2023/06/21 05:25:26;;;;;;;13.25;6.85;;;25.40;59.50;;;;;;5054538;28;20032;-72
2023/06/21 05:27:52;;;;;;;11.00;6.25;;;25.70;59.10;;;;;;5054892;28;20045;-73
2023/06/21 05:30:18;;;;;;;12.27;6.55;;;25.90;58.20;;;;;;5055234;28;20086;-72
2023/06/21 05:32:44;;;;;;;10.02;6.13;;;26.00;57.70;;;;;;5039052;28;20044;-73
2023/06/21 05:35:10;;;;;;;11.05;6.25;;;26.10;57.50;;;;;;5034862;28;20030;-72
2023/06/21 05:37:36;;;;;;;9.65;5.80;;;26.40;56.80;;;;;;5033163;28;20040;-73
2023/06/21 05:40:07;;;;;;;12.48;6.10;;;26.70;56.30;;;;;;5034350;28;20175;-73
2023/06/21 05:42:32;;;;;;;11.70;6.07;;;26.90;55.90;;;;;;5034240;28;20031;-74
2023/06/21 05:44:58;;;;;;;12.13;5.63;;;27.20;55.20;;;;;;5048485;28;20049;-73
2023/06/21 05:47:24;;;;;;;14.95;6.72;;;27.50;54.80;;;;;;5054119;28;20044;-74
2023/06/21 05:49:49;;;;;;;12.70;6.70;;;27.60;54.20;;;;;;5054119;28;20403;-73
2023/06/21 05:52:16;;;;;;;12.48;6.30;;;27.80;54.00;;;;;;5036010;28;20116;-74
2023/06/21 05:54:43;;;;;;;9.80;6.53;;;28.10;53.70;;;;;;5054236;28;20044;-74
2023/06/21 05:57:09;;;;;;;8.82;6.05;;;28.20;53.20;;;;;;5054234;28;20490;-73
2023/06/21 05:59:35;;;;;;;8.80;6.28;;;28.20;53.00;;;;;;5067254;28;20017;-75
2023/06/21 06:02:01;;;;;;;14.02;6.35;;;28.50;53.00;;;;;;5073134;28;20033;-73
2023/06/21 06:04:27;;;;;;;15.30;6.60;;;28.80;52.60;;;;;;5072381;28;20028;-73
2023/06/21 06:06:53;;;;;;;14.93;6.38;;;28.90;52.10;;;;;;5077065;28;20481;-78
2023/06/21 06:09:19;;;;;;;14.50;6.70;;;29.00;52.00;;;;;;5072408;28;20037;-78
2023/06/21 06:11:45;;;;;;;16.30;6.70;;;29.10;51.70;;;;;;5074642;28;20404;-79
2023/06/21 06:14:13;;;;;;;11.43;6.68;;;29.10;51.70;;;;;;5074342;28;20041;-78
2023/06/21 06:16:39;;;;;;;11.68;6.53;;;29.20;51.10;;;;;;5074430;28;20490;-78
2023/06/21 06:19:05;;;;;;;12.45;6.47;;;29.30;51.20;;;;;;5056250;28;20029;-84
2023/06/21 06:21:31;;;;;;;12.20;6.60;;;29.30;50.90;;;;;;5074102;28;20108;-79
2023/06/21 06:23:56;;;;;;;11.70;6.43;;;29.40;50.80;;;;;;5074449;28;20118;-77
2023/06/21 06:26:24;;;;;;;11.30;6.20;;;29.60;50.30;;;;;;5055997;28;20119;-78
2023/06/21 06:28:51;;;;;;;13.50;6.05;;;29.60;50.40;;;;;;5073918;28;20041;-80
2023/06/21 06:31:24;;;;;;;17.95;7.07;;;29.90;50.20;;;;;;5073818;28;20098;-79
2023/06/21 06:33:50;;;;;;;17.73;7.10;;;30.10;49.90;;;;;;5073931;28;20036;-78
2023/06/21 06:36:16;;;;;;;11.73;6.60;;;30.40;49.50;;;;;;5074288;28;20043;-79
2023/06/21 06:38:44;;;;;;;18.33;7.03;;;30.60;49.30;;;;;;5073810;28;20025;-81
2023/06/21 06:41:10;;;;;;;22.42;7.97;;;30.70;49.00;;;;;;5074203;28;20048;-79
2023/06/21 06:43:35;;;;;;;17.67;7.15;;;30.80;48.60;;;;;;5074038;28;20033;-79
2023/06/21 06:46:01;;;;;;;10.40;6.13;;;31.00;48.50;;;;;;5074109;28;20094;-79
2023/06/21 06:48:27;;;;;;;12.18;6.50;;;31.10;48.00;;;;;;5055856;28;20072;-80
2023/06/21 06:50:53;;;;;;;23.55;7.40;;;31.10;47.90;;;;;;5074131;28;20108;-80
2023/06/21 06:53:19;;;;;;;14.77;6.53;;;31.20;47.50;;;;;;5074252;28;20070;-80
2023/06/21 06:55:44;;;;;;;14.98;6.65;;;31.00;47.70;;;;;;5074037;28;20036;-80
2023/06/21 06:58:10;;;;;;;16.95;8.00;;;31.10;47.60;;;;;;5073757;28;20059;-78
2023/06/21 07:00:36;;;;;;;15.30;6.97;;;31.10;47.70;;;;;;5073151;28;20441;-79
2023/06/21 07:03:02;;;;;;;14.07;6.75;;;30.90;47.60;;;;;;5055450;28;20482;-76
2023/06/21 07:05:28;;;;;;;16.45;7.30;;;31.00;47.50;;;;;;5073808;28;20021;-79
2023/06/21 07:07:54;;;;;;;22.60;8.27;;;31.00;47.80;;;;;;5073521;28;20113;-77
2023/06/21 07:10:20;;;;;;;18.25;7.10;;;31.00;48.00;;;;;;5073089;28;20035;-79
2023/06/21 07:12:46;;;;;;;23.98;7.15;;;31.00;47.80;;;;;;5055003;28;20471;-79
2023/06/21 07:15:12;;;;;;;18.77;7.78;;;31.20;47.70;;;;;;5054942;28;20484;-78
2023/06/21 07:17:38;;;;;;;17.02;6.95;;;31.50;47.60;;;;;;5072891;28;20033;-79
2023/06/21 07:20:08;;;;;;;18.55;6.93;;;31.50;47.30;;;;;;5073427;28;20559;-80
2023/06/21 07:22:34;;;;;;;15.80;6.53;;;31.60;46.80;;;;;;5073071;28;20064;-79
2023/06/21 07:24:59;;;;;;;21.05;7.53;;;31.70;46.70;;;;;;5073285;28;20513;-80
2023/06/21 07:27:29;;;;;;;12.18;6.32;;;31.70;46.60;;;;;;5073103;28;20048;-78
2023/06/21 07:29:55;;;;;;;15.30;6.70;;;31.70;45.50;;;;;;5072812;28;20021;-79
2023/06/21 07:32:21;;;;;;;16.52;7.18;;;31.50;47.00;;;;;;5072981;28;20058;-78
2023/06/21 07:34:46;;;;;;;10.25;6.07;;;31.60;46.50;;;;;;5072618;28;20122;-80
2023/06/21 07:37:12;;;;;;;16.88;6.70;;;31.50;46.10;;;;;;5072668;28;20394;-80
2023/06/21 07:39:38;;;;;;;17.90;7.25;;;31.50;46.40;;;;;;5072544;28;20029;-80
2023/06/21 07:42:04;;;;;;;11.68;5.95;;;31.60;46.60;;;;;;5072685;28;20032;-78
2023/06/21 07:44:31;;;;;;;12.27;6.35;;;31.60;46.20;;;;;;5072499;28;20040;-78
2023/06/21 07:46:57;;;;;;;13.80;5.95;;;31.40;46.30;;;;;;5072486;28;20394;-79
2023/06/21 07:49:23;;;;;;;12.75;6.40;;;31.40;46.30;;;;;;5072689;28;20032;-78
2023/06/21 07:51:50;;;;;;;10.30;6.45;;;31.40;46.00;;;;;;5072308;28;20090;-78
2023/06/21 07:54:15;;;;;;;15.02;6.05;;;31.30;46.00;;;;;;5072628;28;20033;-79
2023/06/21 07:56:41;;;;;;;13.45;6.10;;;31.20;45.90;;;;;;5072117;28;20114;-81
2023/06/21 07:59:07;;;;;;;9.68;5.22;;;31.10;45.80;;;;;;5072216;28;20370;-79
2023/06/21 08:01:32;;;;;;;13.43;5.68;;;31.00;46.10;;;;;;5072731;28;20028;-78
2023/06/21 08:04:00;;;;;;;11.60;5.90;;;31.10;46.10;;;;;;5074998;28;20447;-80
2023/06/21 08:06:26;;;;;;;12.55;5.65;;;31.20;46.00;;;;;;5073496;28;20024;-78
2023/06/21 08:08:52;;;;;;;15.57;5.97;;;31.10;46.20;;;;;;5072640;28;20076;-79
2023/06/21 08:11:18;;;;;;;17.17;5.78;;;31.10;46.40;;;;;;5072162;28;20052;-79
2023/06/21 08:13:43;;;;;;;10.43;5.65;;;31.10;46.40;;;;;;5071392;28;20466;-78
2023/06/21 08:16:09;;;;;;;8.93;5.40;;;31.10;46.50;;;;;;5072340;28;20395;-78
2023/06/21 08:18:35;;;;;;;10.75;5.88;;;31.10;46.40;;;;;;5072580;28;20112;-79
2023/06/21 08:21:00;;;;;;;11.48;5.93;;;31.00;46.50;;;;;;5072747;28;20025;-80
2023/06/21 08:23:26;;;;;;;13.88;6.10;;;31.10;46.80;;;;;;5072133;28;20120;-79
2023/06/21 08:25:52;;;;;;;11.50;5.53;;;31.00;46.70;;;;;;5072194;28;20107;-78
2023/06/21 08:28:17;;;;;;;14.27;5.60;;;30.90;46.90;;;;;;5072261;28;20079;-79
2023/06/21 08:30:43;;;;;;;11.27;5.43;;;30.90;46.80;;;;;;5072581;28;20108;-78
2023/06/21 08:33:09;;;;;;;11.80;5.50;;;31.00;47.00;;;;;;5072138;28;20036;-79
2023/06/21 08:35:36;;;;;;;11.73;6.07;;;31.00;46.80;;;;;;5071838;28;20028;-80
2023/06/21 08:38:02;;;;;;;11.30;5.75;;;31.00;46.90;;;;;;5072055;28;20064;-78
2023/06/21 08:40:32;;;;;;;9.63;5.55;;;31.00;47.40;;;;;;5072032;28;20028;-80
2023/06/21 08:42:59;;;;;;;15.20;5.25;;;30.90;46.70;;;;;;5071933;28;20080;-79
2023/06/21 08:45:26;;;;;;;10.27;5.57;;;30.90;47.00;;;;;;5053814;28;20048;-78
2023/06/21 08:47:52;;;;;;;9.45;5.25;;;30.90;46.80;;;;;;5071798;28;20048;-79
2023/06/21 08:50:20;;;;;;;15.65;8.95;;;30.90;47.40;;;;;;5071890;28;20446;-80
2023/06/21 08:52:47;;;;;;;10.00;6.50;;;30.90;46.60;;;;;;5072140;28;20029;-79
2023/06/21 08:55:15;;;;;;;11.98;6.15;;;30.90;46.70;;;;;;5071676;28;20031;-80
2023/06/21 08:57:55;;;;;;;15.15;6.65;;;30.90;46.50;;;;;;5071661;28;20389;-78
2023/06/21 09:00:26;;;;;;;12.52;4.85;;;30.90;44.90;;;;;;5071558;28;20032;-79
2023/06/21 09:03:12;;;;;;;11.73;5.53;;;30.90;45.80;;;;;;5053696;28;20074;-78
2023/06/21 09:06:01;;;;;;;9.82;4.78;;;30.90;44.30;;;;;;5071597;28;20075;-80
2023/06/21 09:08:26;;;;;;;9.38;4.88;;;30.80;44.00;;;;;;5071589;28;20044;-79
2023/06/21 09:10:53;;;;;;;8.98;5.20;;;30.80;44.50;;;;;;5071851;28;20032;-79
2023/06/21 09:13:19;;;;;;;10.27;5.07;;;30.80;43.90;;;;;;5071526;28;20037;-79
2023/06/21 09:15:47;;;;;;;11.15;5.35;;;30.70;43.50;;;;;;5071803;28;20036;-80
2023/06/21 09:18:14;;;;;;;14.38;5.70;;;30.80;43.40;;;;;;5071677;28;20450;-79
2023/06/21 09:20:41;;;;;;;10.30;5.55;;;30.80;43.20;;;;;;5071888;28;20028;-79
2023/06/21 09:23:09;;;;;;;8.52;5.20;;;30.80;43.00;;;;;;5073601;28;20511;-78
2023/06/21 09:25:34;;;;;;;12.98;5.72;;;30.90;42.80;;;;;;5073791;28;20035;-80
2023/06/21 09:28:00;;;;;;;9.20;5.60;;;30.90;42.90;;;;;;5075257;28;20036;-80
2023/06/21 09:30:26;;;;;;;11.30;5.43;;;30.90;42.40;;;;;;5075146;28;20059;-80
2023/06/21 09:32:52;;;;;;;9.98;5.28;;;30.90;42.30;;;;;;5075072;28;20067;-78
2023/06/21 09:35:18;;;;;;;11.55;5.30;;;31.00;42.50;;;;;;5075217;28;20032;-80
2023/06/21 09:37:44;;;;;;;19.02;6.75;;;31.00;42.50;;;;;;5075258;28;20031;-78
2023/06/21 09:40:11;;;;;;;12.65;5.80;;;31.00;42.40;;;;;;5075163;28;20191;-79
2023/06/21 09:42:39;;;;;;;10.18;5.10;;;31.10;42.10;;;;;;5056942;28;20025;-79
2023/06/21 09:45:09;;;;;;;7.45;4.85;;;31.10;41.60;;;;;;5075238;28;20044;-80
2023/06/21 09:47:35;;;;;;;13.60;5.60;;;31.10;41.40;;;;;;5074992;28;20051;-80
2023/06/21 09:50:05;;;;;;;7.57;5.03;;;31.20;41.50;;;;;;5074885;28;20108;-79
2023/06/21 09:52:30;;;;;;;8.07;5.38;;;31.30;41.20;;;;;;5074933;28;20119;-79
2023/06/21 09:54:58;;;;;;;10.52;5.20;;;31.30;41.50;;;;;;5074729;28;20571;-79
2023/06/21 09:57:31;;;;;;;9.82;5.38;;;31.40;41.10;;;;;;5074770;28;20047;-79
2023/06/21 09:59:59;;;;;;;10.07;5.20;;;31.40;41.00;;;;;;5074870;28;20157;-79
2023/06/21 10:02:26;;;;;;;7.60;5.05;;;31.40;41.30;;;;;;5074883;28;20024;-79
2023/06/21 10:04:54;;;;;;;9.88;5.40;;;31.40;41.10;;;;;;5076268;28;20103;-79
2023/06/21 10:07:24;;;;;;;9.32;5.10;;;31.50;41.10;;;;;;5078120;28;20044;-80
2023/06/21 10:09:50;;;;;;;9.57;5.35;;;31.50;41.20;;;;;;5057415;28;20032;-79
2023/06/21 10:12:15;;;;;;;10.80;5.00;;;31.60;41.00;;;;;;5074938;28;20113;-79
2023/06/21 10:14:42;;;;;;;12.15;5.78;;;31.60;41.00;;;;;;5075099;28;20044;-79
2023/06/21 10:17:08;;;;;;;11.15;5.95;;;31.70;41.20;;;;;;5074681;28;20032;-79
2023/06/21 10:19:35;;;;;;;9.82;5.60;;;31.80;41.10;;;;;;5074779;28;20067;-79
2023/06/21 10:22:15;;;;;;;13.52;5.65;;;31.80;40.50;;;;;;5074968;28;20060;-79
2023/06/21 10:24:49;;;;;;;11.43;5.78;;;31.90;40.20;;;;;;5074792;28;20134;-80
2023/06/21 10:27:17;;;;;;;7.35;5.15;;;31.90;40.40;;;;;;5074689;28;20312;-81
2023/06/21 10:29:44;;;;;;;11.65;5.45;;;31.90;40.50;;;;;;5074329;28;20071;-81
2023/06/21 10:32:11;;;;;;;12.00;5.60;;;31.90;40.40;;;;;;5056393;28;20119;-79
2023/06/21 10:35:06;;;;;;;9.57;6.03;;;32.00;41.30;;;;;;5074727;28;20107;-79
2023/06/21 10:37:36;;;;;;;10.45;5.95;;;32.10;40.60;;;;;;5073629;28;20040;-80
2023/06/21 10:40:09;;;;;;;11.07;5.97;;;32.10;40.40;;;;;;5074402;28;20036;-80
2023/06/21 10:42:36;;;;;;;9.38;5.53;;;32.20;40.50;;;;;;5074514;28;20064;-80
2023/06/21 10:45:04;;;;;;;14.68;6.35;;;32.30;40.30;;;;;;5076012;28;20055;-81
2023/06/21 10:47:32;;;;;;;12.18;5.85;;;32.40;40.30;;;;;;5074644;28;20094;-79
2023/06/21 10:50:00;;;;;;;10.50;5.80;;;32.50;40.00;;;;;;5078735;28;20029;-81
2023/06/21 10:52:28;;;;;;;11.23;5.57;;;32.50;39.50;;;;;;5074842;28;20025;-79
2023/06/21 10:54:57;;;;;;;12.13;6.10;;;32.60;39.70;;;;;;5074677;28;20024;-80
2023/06/21 10:57:25;;;;;;;12.13;5.97;;;32.70;39.50;;;;;;5074439;28;20052;-79
2023/06/21 10:59:53;;;;;;;10.10;5.65;;;32.70;39.30;;;;;;5074342;28;20045;-80
2023/06/21 11:02:19;;;;;;;10.27;5.80;;;32.80;39.50;;;;;;5073805;28;20548;-81
2023/06/21 11:05:23;;;;;;;7.45;5.13;;;32.80;39.20;;;;;;5073909;28;20036;-81
2023/06/21 11:07:56;;;;;;;9.68;5.35;;;32.90;39.00;;;;;;5073403;28;20498;-80
2023/06/21 11:10:38;;;;;;;8.80;5.38;;;32.90;39.50;;;;;;5073874;28;20043;-80
2023/06/21 11:13:04;;;;;;;12.27;5.63;;;32.90;39.10;;;;;;5076071;28;20037;-80
2023/06/21 11:15:32;;;;;;;8.55;5.18;;;33.00;39.50;;;;;;5055883;28;20028;-81
2023/06/21 11:18:05;;;;;;;9.88;5.40;;;33.00;39.30;;;;;;5073795;28;20039;-79
2023/06/21 11:20:42;;;;;;;;;;;33.10;39.30;;;;;;5074521;28;20090;-82
2023/06/21 11:23:08;;;;;;;12.85;5.60;;;33.10;38.90;;;;;;5073991;28;19904;-79
2023/06/21 11:25:38;;;;;;;8.95;5.20;;;33.10;39.00;;;;;;5074355;28;20101;-80
2023/06/21 11:28:19;;;;;;;11.38;5.53;;;33.20;38.60;;;;;;5055747;28;20419;-80
2023/06/21 11:31:23;;;;;;;8.70;5.10;;;33.20;38.40;;;;;;5073986;28;20062;-81
2023/06/21 11:33:56;;;;;;;10.02;5.65;;;33.40;38.40;;;;;;5073777;28;20040;-80
2023/06/21 11:36:28;;;;;;;;;;;33.40;37.40;;;;;;5056016;28;20097;-81
2023/06/21 11:39:10;;;;;;;11.30;5.68;;;33.50;38.00;;;;;;5073886;28;19939;-79
2023/06/21 11:41:45;;;;;;;9.55;4.97;;;33.60;37.90;;;;;;5073521;28;20409;-81
2023/06/21 11:44:19;;;;;;;9.80;5.40;;;33.60;36.60;;;;;;5073340;28;20367;-81
2023/06/21 11:46:45;;;;;;;8.88;5.45;;;33.60;36.50;;;;;;5055113;28;20036;-79
2023/06/21 11:49:12;;;;;;;8.60;4.72;;;33.60;36.30;;;;;;5073584;28;20049;-79
2023/06/21 11:52:04;;;;;;;12.70;5.25;;;33.70;35.70;;;;;;5073590;28;20045;-81
2023/06/21 11:54:34;;;;;;;11.13;5.70;;;33.70;36.20;;;;;;5055643;28;20043;-82
2023/06/21 11:56:59;;;;;;;10.77;5.47;;;33.80;36.40;;;;;;5073793;28;20024;-80
2023/06/21 11:59:26;;;;;;;6.97;4.85;;;33.80;35.80;;;;;;5074245;28;20193;-80
2023/06/21 12:01:52;;;;;;;11.23;4.90;;;33.90;35.50;;;;;;5079092;28;20064;-79
2023/06/21 12:04:27;;;;;;;11.13;5.40;;;34.00;35.10;;;;;;5087173;28;20062;-79
2023/06/21 12:06:56;;;;;;;13.55;5.72;;;34.00;35.10;;;;;;5083323;28;20036;-81
2023/06/21 12:09:22;;;;;;;7.00;5.32;;;34.10;34.60;;;;;;5073157;28;20032;-81
2023/06/21 12:11:48;;;;;;;10.52;5.43;;;34.10;34.90;;;;;;5056620;28;20033;-81
2023/06/21 12:14:15;;;;;;;9.07;5.28;;;34.20;34.50;;;;;;5073830;28;20040;-80
2023/06/21 12:16:41;;;;;;;9.23;5.40;;;34.30;34.80;;;;;;5072718;28;20025;-81
2023/06/21 12:19:09;;;;;;;7.90;5.20;;;34.30;35.00;;;;;;5072403;28;20040;-81
2023/06/21 12:21:35;;;;;;;8.85;5.80;;;34.40;34.80;;;;;;5072521;28;20131;-81
2023/06/21 12:24:01;;;;;;;10.95;5.32;;;34.50;34.90;;;;;;5072655;28;20447;-80
2023/06/21 12:26:27;;;;;;;8.43;5.57;;;34.60;36.40;;;;;;5072745;28;20035;-81
2023/06/21 12:28:53;;;;;;;12.20;6.45;;;34.70;37.80;;;;;;5072431;28;20505;-79
2023/06/21 12:31:20;;;;;;;9.30;6.03;;;34.60;38.40;;;;;;5072712;28;20040;-80
2023/06/21 12:33:53;;;;;;;8.10;5.28;;;34.60;38.70;;;;;;5072343;28;20109;-79
2023/06/21 12:36:21;;;;;;;10.15;5.80;;;34.60;38.70;;;;;;5072650;28;20143;-79
2023/06/21 12:39:02;;;;;;;9.88;5.72;;;34.60;39.10;;;;;;5072376;28;20037;-80
2023/06/21 12:41:29;;;;;;;9.52;5.47;;;34.60;40.00;;;;;;5054412;28;20087;-81